sensor_id;sensor_type;location;lat;lon;timestamp;temperature;humidity
74901;DHT22;63461;51.416;6.758;2023-01-25T00:00:21;3.40;99.90
74901;DHT22;63461;51.416;6.758;2023-01-25T00:02:47;3.40;99.90
74901;DHT22;63461;51.416;6.758;2023-01-25T00:05:13;3.40;99.90
74901;DHT22;63461;51.416;6.758;2023-01-25T00:07:39;3.40;99.90
74901;DHT22;63461;51.416;6.758;2023-01-25T00:10:05;3.40;99.90
74901;DHT22;63461;51.416;6.758;2023-01-25T00:12:31;3.40;99.90
74901;DHT22;63461;51.416;6.758;2023-01-25T00:14:57;3.40;99.90
74901;DHT22;63461;51.416;6.758;2023-01-25T00:17:22;3.30;99.90
74901;DHT22;63461;51.416;6.758;2023-01-25T00:19:48;3.30;99.90
74901;DHT22;63461;51.416;6.758;2023-01-25T00:22:14;3.40;99.90
74901;DHT22;63461;51.416;6.758;2023-01-25T00:24:40;3.30;99.90
74901;DHT22;63461;51.416;6.758;2023-01-25T00:27:05;3.40;99.90
74901;DHT22;63461;51.416;6.758;2023-01-25T00:29:50;3.30;99.90
74901;DHT22;63461;51.416;6.758;2023-01-25T00:38:56;3.30;99.90
74901;DHT22;63461;51.416;6.758;2023-01-25T00:41:23;3.30;99.90
74901;DHT22;63461;51.416;6.758;2023-01-25T00:43:49;3.30;99.90
74901;DHT22;63461;51.416;6.758;2023-01-25T00:46:15;3.30;99.90
74901;DHT22;63461;51.416;6.758;2023-01-25T00:48:41;3.30;99.90
74901;DHT22;63461;51.416;6.758;2023-01-25T00:51:07;3.30;99.90
74901;DHT22;63461;51.416;6.758;2023-01-25T00:53:34;3.20;99.90
74901;DHT22;63461;51.416;6.758;2023-01-25T00:56:00;3.20;99.90
74901;DHT22;63461;51.416;6.758;2023-01-25T00:58:26;3.20;99.90
74901;DHT22;63461;51.416;6.758;2023-01-25T01:00:52;3.20;99.90
74901;DHT22;63461;51.416;6.758;2023-01-25T01:03:18;3.10;99.90
74901;DHT22;63461;51.416;6.758;2023-01-25T01:05:44;3.20;99.90
74901;DHT22;63461;51.416;6.758;2023-01-25T01:08:12;3.10;99.90
74901;DHT22;63461;51.416;6.758;2023-01-25T01:10:38;3.10;99.90
74901;DHT22;63461;51.416;6.758;2023-01-25T01:13:04;3.20;99.90
74901;DHT22;63461;51.416;6.758;2023-01-25T01:22:18;3.10;99.90
74901;DHT22;63461;51.416;6.758;2023-01-25T01:24:46;3.10;99.90
74901;DHT22;63461;51.416;6.758;2023-01-25T01:27:13;3.10;99.90
74901;DHT22;63461;51.416;6.758;2023-01-25T01:29:39;3.10;99.90
74901;DHT22;63461;51.416;6.758;2023-01-25T01:32:05;3.00;99.90
74901;DHT22;63461;51.416;6.758;2023-01-25T01:34:31;3.00;99.90
74901;DHT22;63461;51.416;6.758;2023-01-25T01:36:57;3.00;99.90
74901;DHT22;63461;51.416;6.758;2023-01-25T01:39:23;2.90;99.90
74901;DHT22;63461;51.416;6.758;2023-01-25T01:41:48;2.90;99.90
74901;DHT22;63461;51.416;6.758;2023-01-25T01:44:17;2.90;99.90
74901;DHT22;63461;51.416;6.758;2023-01-25T01:46:56;2.90;99.90
74901;DHT22;63461;51.416;6.758;2023-01-25T01:49:30;2.90;99.90
74901;DHT22;63461;51.416;6.758;2023-01-25T01:52:10;2.80;99.90
74901;DHT22;63461;51.416;6.758;2023-01-25T01:54:58;2.80;99.90
74901;DHT22;63461;51.416;6.758;2023-01-25T01:57:53;2.80;99.90
74901;DHT22;63461;51.416;6.758;2023-01-25T02:00:27;2.90;99.90
74901;DHT22;63461;51.416;6.758;2023-01-25T02:02:54;2.80;99.90
74901;DHT22;63461;51.416;6.758;2023-01-25T02:08:03;2.90;99.90
74901;DHT22;63461;51.416;6.758;2023-01-25T02:10:31;2.80;99.90
74901;DHT22;63461;51.416;6.758;2023-01-25T02:12:58;2.90;99.90
74901;DHT22;63461;51.416;6.758;2023-01-25T02:15:28;2.80;99.90
74901;DHT22;63461;51.416;6.758;2023-01-25T02:17:56;2.80;99.90
74901;DHT22;63461;51.416;6.758;2023-01-25T02:20:39;2.80;99.90
74901;DHT22;63461;51.416;6.758;2023-01-25T02:23:23;2.90;99.90
74901;DHT22;63461;51.416;6.758;2023-01-25T02:25:49;2.90;99.90
74901;DHT22;63461;51.416;6.758;2023-01-25T02:28:20;2.90;99.90
74901;DHT22;63461;51.416;6.758;2023-01-25T02:30:47;2.80;99.90
74901;DHT22;63461;51.416;6.758;2023-01-25T02:33:15;2.80;99.90
74901;DHT22;63461;51.416;6.758;2023-01-25T02:35:45;2.80;99.90
74901;DHT22;63461;51.416;6.758;2023-01-25T02:38:16;2.80;99.90
74901;DHT22;63461;51.416;6.758;2023-01-25T02:40:55;2.80;99.90
74901;DHT22;63461;51.416;6.758;2023-01-25T02:43:22;2.80;99.90
74901;DHT22;63461;51.416;6.758;2023-01-25T02:45:55;2.80;99.90
74901;DHT22;63461;51.416;6.758;2023-01-25T02:48:22;2.80;99.90
74901;DHT22;63461;51.416;6.758;2023-01-25T02:50:49;2.70;99.90
74901;DHT22;63461;51.416;6.758;2023-01-25T02:53:14;2.70;99.90
74901;DHT22;63461;51.416;6.758;2023-01-25T02:55:41;2.70;99.90
74901;DHT22;63461;51.416;6.758;2023-01-25T02:58:07;2.70;99.90
74901;DHT22;63461;51.416;6.758;2023-01-25T03:00:33;2.70;99.90
74901;DHT22;63461;51.416;6.758;2023-01-25T03:02:59;2.50;99.90
74901;DHT22;63461;51.416;6.758;2023-01-25T03:05:25;2.50;99.90
74901;DHT22;63461;51.416;6.758;2023-01-25T03:07:51;2.60;99.90
74901;DHT22;63461;51.416;6.758;2023-01-25T03:10:17;2.50;99.90
74901;DHT22;63461;51.416;6.758;2023-01-25T03:12:46;2.50;99.90
74901;DHT22;63461;51.416;6.758;2023-01-25T03:15:13;2.70;99.90
74901;DHT22;63461;51.416;6.758;2023-01-25T03:17:40;2.60;99.90
74901;DHT22;63461;51.416;6.758;2023-01-25T03:20:06;2.70;99.90
74901;DHT22;63461;51.416;6.758;2023-01-25T03:22:33;2.60;99.90
74901;DHT22;63461;51.416;6.758;2023-01-25T03:24:59;2.70;99.90
74901;DHT22;63461;51.416;6.758;2023-01-25T03:27:26;2.60;99.90
74901;DHT22;63461;51.416;6.758;2023-01-25T03:30:01;2.60;99.90
74901;DHT22;63461;51.416;6.758;2023-01-25T03:32:30;2.70;99.90
74901;DHT22;63461;51.416;6.758;2023-01-25T03:35:02;2.70;99.90
74901;DHT22;63461;51.416;6.758;2023-01-25T03:37:28;2.60;99.90
74901;DHT22;63461;51.416;6.758;2023-01-25T03:39:59;2.70;99.90
74901;DHT22;63461;51.416;6.758;2023-01-25T03:42:25;2.70;99.90
74901;DHT22;63461;51.416;6.758;2023-01-25T03:44:55;2.70;99.90
74901;DHT22;63461;51.416;6.758;2023-01-25T03:47:21;2.60;99.90
74901;DHT22;63461;51.416;6.758;2023-01-25T03:49:47;2.70;99.90
74901;DHT22;63461;51.416;6.758;2023-01-25T03:52:17;2.70;99.90
74901;DHT22;63461;51.416;6.758;2023-01-25T03:54:43;2.70;99.90
74901;DHT22;63461;51.416;6.758;2023-01-25T03:57:09;2.70;99.90
74901;DHT22;63461;51.416;6.758;2023-01-25T03:59:47;2.60;99.90
74901;DHT22;63461;51.416;6.758;2023-01-25T04:02:12;2.70;99.90
74901;DHT22;63461;51.416;6.758;2023-01-25T04:04:39;2.60;99.90
74901;DHT22;63461;51.416;6.758;2023-01-25T04:07:07;2.70;99.90
74901;DHT22;63461;51.416;6.758;2023-01-25T04:09:34;2.70;99.90
74901;DHT22;63461;51.416;6.758;2023-01-25T04:12:00;2.70;99.90
74901;DHT22;63461;51.416;6.758;2023-01-25T04:14:26;2.60;99.90
74901;DHT22;63461;51.416;6.758;2023-01-25T04:16:59;2.60;99.90
74901;DHT22;63461;51.416;6.758;2023-01-25T04:19:38;2.60;99.90
74901;DHT22;63461;51.416;6.758;2023-01-25T04:22:08;2.60;99.90
74901;DHT22;63461;51.416;6.758;2023-01-25T04:24:36;2.60;99.90
74901;DHT22;63461;51.416;6.758;2023-01-25T04:27:03;2.70;99.90
74901;DHT22;63461;51.416;6.758;2023-01-25T04:29:32;2.70;99.90
74901;DHT22;63461;51.416;6.758;2023-01-25T04:31:58;2.70;99.90
74901;DHT22;63461;51.416;6.758;2023-01-25T04:34:24;2.70;99.90
74901;DHT22;63461;51.416;6.758;2023-01-25T04:36:51;2.70;99.90
74901;DHT22;63461;51.416;6.758;2023-01-25T04:39:16;2.70;99.90
74901;DHT22;63461;51.416;6.758;2023-01-25T04:41:42;2.60;99.90
74901;DHT22;63461;51.416;6.758;2023-01-25T04:44:08;2.60;99.90
74901;DHT22;63461;51.416;6.758;2023-01-25T04:46:36;2.70;99.90
74901;DHT22;63461;51.416;6.758;2023-01-25T04:49:02;2.60;99.90
74901;DHT22;63461;51.416;6.758;2023-01-25T04:51:28;2.60;99.90
74901;DHT22;63461;51.416;6.758;2023-01-25T04:53:54;2.70;99.90
74901;DHT22;63461;51.416;6.758;2023-01-25T04:56:20;2.60;99.90
74901;DHT22;63461;51.416;6.758;2023-01-25T04:58:52;2.70;99.90
74901;DHT22;63461;51.416;6.758;2023-01-25T05:01:18;2.70;99.90
74901;DHT22;63461;51.416;6.758;2023-01-25T05:03:44;2.70;99.90
74901;DHT22;63461;51.416;6.758;2023-01-25T05:06:22;2.70;99.90
74901;DHT22;63461;51.416;6.758;2023-01-25T05:08:48;2.70;99.90
74901;DHT22;63461;51.416;6.758;2023-01-25T05:11:14;2.60;99.90
74901;DHT22;63461;51.416;6.758;2023-01-25T05:13:54;2.70;99.90
74901;DHT22;63461;51.416;6.758;2023-01-25T05:16:26;2.70;99.90
74901;DHT22;63461;51.416;6.758;2023-01-25T05:18:54;2.70;99.90
74901;DHT22;63461;51.416;6.758;2023-01-25T05:21:24;2.70;99.90
74901;DHT22;63461;51.416;6.758;2023-01-25T05:24:09;2.70;99.90
74901;DHT22;63461;51.416;6.758;2023-01-25T05:26:34;2.70;99.90
74901;DHT22;63461;51.416;6.758;2023-01-25T05:29:19;2.70;99.90
74901;DHT22;63461;51.416;6.758;2023-01-25T05:31:52;2.80;99.90
74901;DHT22;63461;51.416;6.758;2023-01-25T05:34:18;2.70;99.90
74901;DHT22;63461;51.416;6.758;2023-01-25T05:36:44;2.70;99.90
74901;DHT22;63461;51.416;6.758;2023-01-25T05:39:10;2.70;99.90
74901;DHT22;63461;51.416;6.758;2023-01-25T05:41:36;2.70;99.90
74901;DHT22;63461;51.416;6.758;2023-01-25T05:44:03;2.70;99.90
74901;DHT22;63461;51.416;6.758;2023-01-25T05:46:30;2.60;99.90
74901;DHT22;63461;51.416;6.758;2023-01-25T05:48:56;2.70;99.90
74901;DHT22;63461;51.416;6.758;2023-01-25T05:51:25;2.70;99.90
74901;DHT22;63461;51.416;6.758;2023-01-25T05:53:53;2.70;99.90
74901;DHT22;63461;51.416;6.758;2023-01-25T05:56:20;2.70;99.90
74901;DHT22;63461;51.416;6.758;2023-01-25T05:58:46;2.60;99.90
74901;DHT22;63461;51.416;6.758;2023-01-25T06:01:16;2.50;99.90
74901;DHT22;63461;51.416;6.758;2023-01-25T06:03:49;2.70;99.90
74901;DHT22;63461;51.416;6.758;2023-01-25T06:06:16;2.70;99.90
74901;DHT22;63461;51.416;6.758;2023-01-25T06:08:44;2.70;99.90
74901;DHT22;63461;51.416;6.758;2023-01-25T06:11:12;2.80;99.90
74901;DHT22;63461;51.416;6.758;2023-01-25T06:13:42;2.70;99.90
74901;DHT22;63461;51.416;6.758;2023-01-25T06:16:08;2.70;99.90
74901;DHT22;63461;51.416;6.758;2023-01-25T06:18:40;2.70;99.90
74901;DHT22;63461;51.416;6.758;2023-01-25T06:21:32;2.80;99.90
74901;DHT22;63461;51.416;6.758;2023-01-25T06:23:59;2.70;99.90
74901;DHT22;63461;51.416;6.758;2023-01-25T06:26:25;2.60;99.90
74901;DHT22;63461;51.416;6.758;2023-01-25T06:28:51;2.60;99.90
74901;DHT22;63461;51.416;6.758;2023-01-25T06:31:17;2.70;99.90
74901;DHT22;63461;51.416;6.758;2023-01-25T06:33:47;2.70;99.90
74901;DHT22;63461;51.416;6.758;2023-01-25T06:36:15;2.70;99.90
74901;DHT22;63461;51.416;6.758;2023-01-25T06:38:41;2.60;99.90
74901;DHT22;63461;51.416;6.758;2023-01-25T06:41:09;2.70;99.90
74901;DHT22;63461;51.416;6.758;2023-01-25T06:43:36;2.70;99.90
74901;DHT22;63461;51.416;6.758;2023-01-25T06:46:07;2.60;99.90
74901;DHT22;63461;51.416;6.758;2023-01-25T06:48:33;2.50;99.90
74901;DHT22;63461;51.416;6.758;2023-01-25T06:51:02;2.50;99.90
74901;DHT22;63461;51.416;6.758;2023-01-25T06:53:29;2.70;99.90
74901;DHT22;63461;51.416;6.758;2023-01-25T06:58:32;2.50;99.90
74901;DHT22;63461;51.416;6.758;2023-01-25T07:01:00;2.60;99.90
74901;DHT22;63461;51.416;6.758;2023-01-25T07:03:27;2.60;99.90
74901;DHT22;63461;51.416;6.758;2023-01-25T07:06:00;2.50;99.90
74901;DHT22;63461;51.416;6.758;2023-01-25T07:08:27;2.40;99.90
74901;DHT22;63461;51.416;6.758;2023-01-25T07:10:54;2.50;99.90
74901;DHT22;63461;51.416;6.758;2023-01-25T07:13:21;2.60;99.90
74901;DHT22;63461;51.416;6.758;2023-01-25T07:15:56;2.60;99.90
74901;DHT22;63461;51.416;6.758;2023-01-25T07:18:23;2.60;99.90
74901;DHT22;63461;51.416;6.758;2023-01-25T07:20:49;2.70;99.90
74901;DHT22;63461;51.416;6.758;2023-01-25T07:23:15;2.70;99.90
74901;DHT22;63461;51.416;6.758;2023-01-25T07:25:45;2.70;99.90
74901;DHT22;63461;51.416;6.758;2023-01-25T07:28:11;2.50;99.90
74901;DHT22;63461;51.416;6.758;2023-01-25T07:30:37;2.60;99.90
74901;DHT22;63461;51.416;6.758;2023-01-25T07:33:03;2.50;99.90
74901;DHT22;63461;51.416;6.758;2023-01-25T07:35:29;2.60;99.90
74901;DHT22;63461;51.416;6.758;2023-01-25T07:37:55;2.70;99.90
74901;DHT22;63461;51.416;6.758;2023-01-25T07:40:21;2.70;99.90
74901;DHT22;63461;51.416;6.758;2023-01-25T07:42:50;2.60;99.90
74901;DHT22;63461;51.416;6.758;2023-01-25T07:45:17;2.60;99.90
74901;DHT22;63461;51.416;6.758;2023-01-25T07:47:43;2.70;99.90
74901;DHT22;63461;51.416;6.758;2023-01-25T07:50:10;2.60;99.90
74901;DHT22;63461;51.416;6.758;2023-01-25T07:52:36;2.50;99.90
74901;DHT22;63461;51.416;6.758;2023-01-25T07:55:02;2.50;99.90
74901;DHT22;63461;51.416;6.758;2023-01-25T07:57:27;2.60;99.90
74901;DHT22;63461;51.416;6.758;2023-01-25T07:59:53;2.70;99.90
74901;DHT22;63461;51.416;6.758;2023-01-25T08:02:19;2.50;99.90
74901;DHT22;63461;51.416;6.758;2023-01-25T08:04:45;2.50;99.90
74901;DHT22;63461;51.416;6.758;2023-01-25T08:07:12;2.70;99.90
74901;DHT22;63461;51.416;6.758;2023-01-25T08:09:39;2.70;99.90
74901;DHT22;63461;51.416;6.758;2023-01-25T08:12:06;2.70;99.90
74901;DHT22;63461;51.416;6.758;2023-01-25T08:14:32;2.70;99.90
74901;DHT22;63461;51.416;6.758;2023-01-25T08:16:58;2.80;99.90
74901;DHT22;63461;51.416;6.758;2023-01-25T08:19:24;2.80;99.90
74901;DHT22;63461;51.416;6.758;2023-01-25T08:21:50;2.80;99.90
74901;DHT22;63461;51.416;6.758;2023-01-25T08:24:16;2.70;99.90
74901;DHT22;63461;51.416;6.758;2023-01-25T08:26:42;2.70;99.90
74901;DHT22;63461;51.416;6.758;2023-01-25T08:29:10;2.50;99.90
74901;DHT22;63461;51.416;6.758;2023-01-25T08:31:39;2.40;99.90
74901;DHT22;63461;51.416;6.758;2023-01-25T08:34:05;2.60;99.90
74901;DHT22;63461;51.416;6.758;2023-01-25T08:36:31;2.60;99.90
74901;DHT22;63461;51.416;6.758;2023-01-25T08:39:00;2.70;99.90
74901;DHT22;63461;51.416;6.758;2023-01-25T08:41:28;2.70;99.90
74901;DHT22;63461;51.416;6.758;2023-01-25T08:43:55;2.60;99.90
74901;DHT22;63461;51.416;6.758;2023-01-25T08:46:22;2.70;99.90
74901;DHT22;63461;51.416;6.758;2023-01-25T08:48:52;2.50;99.90
74901;DHT22;63461;51.416;6.758;2023-01-25T08:51:18;2.60;99.90
74901;DHT22;63461;51.416;6.758;2023-01-25T08:53:44;2.70;99.90
74901;DHT22;63461;51.416;6.758;2023-01-25T08:56:12;2.70;99.90
74901;DHT22;63461;51.416;6.758;2023-01-25T08:58:41;2.70;99.90
74901;DHT22;63461;51.416;6.758;2023-01-25T09:01:09;2.70;99.90
74901;DHT22;63461;51.416;6.758;2023-01-25T09:03:37;2.70;99.90
74901;DHT22;63461;51.416;6.758;2023-01-25T09:06:03;2.80;99.90
74901;DHT22;63461;51.416;6.758;2023-01-25T09:08:30;2.70;99.90
74901;DHT22;63461;51.416;6.758;2023-01-25T09:11:03;2.70;99.90
74901;DHT22;63461;51.416;6.758;2023-01-25T09:13:29;2.80;99.90
74901;DHT22;63461;51.416;6.758;2023-01-25T09:16:03;2.80;99.90
74901;DHT22;63461;51.416;6.758;2023-01-25T09:18:29;2.70;99.90
74901;DHT22;63461;51.416;6.758;2023-01-25T09:20:56;2.70;99.90
74901;DHT22;63461;51.416;6.758;2023-01-25T09:23:22;2.60;99.90
74901;DHT22;63461;51.416;6.758;2023-01-25T09:25:58;2.50;99.90
74901;DHT22;63461;51.416;6.758;2023-01-25T09:28:26;2.50;99.90
74901;DHT22;63461;51.416;6.758;2023-01-25T09:31:00;2.70;99.90
74901;DHT22;63461;51.416;6.758;2023-01-25T09:33:47;2.60;99.90
74901;DHT22;63461;51.416;6.758;2023-01-25T09:36:12;2.50;99.90
74901;DHT22;63461;51.416;6.758;2023-01-25T09:38:38;2.70;99.90
74901;DHT22;63461;51.416;6.758;2023-01-25T09:43:58;2.80;99.90
74901;DHT22;63461;51.416;6.758;2023-01-25T09:46:36;2.80;99.90
74901;DHT22;63461;51.416;6.758;2023-01-25T09:54:25;2.70;99.90
74901;DHT22;63461;51.416;6.758;2023-01-25T09:56:53;2.80;99.90
74901;DHT22;63461;51.416;6.758;2023-01-25T09:59:22;2.80;99.90
74901;DHT22;63461;51.416;6.758;2023-01-25T10:02:03;2.80;99.90
74901;DHT22;63461;51.416;6.758;2023-01-25T10:04:39;2.80;99.90
74901;DHT22;63461;51.416;6.758;2023-01-25T10:07:27;2.90;99.90
74901;DHT22;63461;51.416;6.758;2023-01-25T10:10:03;2.90;99.90
74901;DHT22;63461;51.416;6.758;2023-01-25T10:12:38;2.90;99.90
74901;DHT22;63461;51.416;6.758;2023-01-25T10:15:20;2.70;99.90
74901;DHT22;63461;51.416;6.758;2023-01-25T10:17:55;2.80;99.90
74901;DHT22;63461;51.416;6.758;2023-01-25T10:20:33;2.80;99.90
74901;DHT22;63461;51.416;6.758;2023-01-25T10:25:35;2.70;99.90
74901;DHT22;63461;51.416;6.758;2023-01-25T10:31:05;2.80;99.90
74901;DHT22;63461;51.416;6.758;2023-01-25T10:33:36;2.80;99.90
74901;DHT22;63461;51.416;6.758;2023-01-25T10:36:05;2.80;99.90
74901;DHT22;63461;51.416;6.758;2023-01-25T10:38:42;2.90;99.90
74901;DHT22;63461;51.416;6.758;2023-01-25T10:41:25;2.90;99.90
74901;DHT22;63461;51.416;6.758;2023-01-25T10:43:53;2.90;99.90
74901;DHT22;63461;51.416;6.758;2023-01-25T10:46:39;2.90;99.90
74901;DHT22;63461;51.416;6.758;2023-01-25T10:49:23;2.80;99.90
74901;DHT22;63461;51.416;6.758;2023-01-25T10:51:49;2.80;99.90
74901;DHT22;63461;51.416;6.758;2023-01-25T10:54:16;2.80;99.90
74901;DHT22;63461;51.416;6.758;2023-01-25T10:56:43;2.90;99.90
74901;DHT22;63461;51.416;6.758;2023-01-25T11:01:44;2.80;99.90
74901;DHT22;63461;51.416;6.758;2023-01-25T11:04:34;2.70;99.90
74901;DHT22;63461;51.416;6.758;2023-01-25T11:07:02;2.80;99.90
74901;DHT22;63461;51.416;6.758;2023-01-25T11:09:32;2.70;99.90
74901;DHT22;63461;51.416;6.758;2023-01-25T11:12:15;2.90;99.90
74901;DHT22;63461;51.416;6.758;2023-01-25T11:14:42;2.90;99.90
74901;DHT22;63461;51.416;6.758;2023-01-25T11:17:23;2.90;99.90
74901;DHT22;63461;51.416;6.758;2023-01-25T11:20:14;2.90;99.90
74901;DHT22;63461;51.416;6.758;2023-01-25T11:23:23;2.90;99.90
74901;DHT22;63461;51.416;6.758;2023-01-25T11:25:52;3.00;99.90
74901;DHT22;63461;51.416;6.758;2023-01-25T11:28:22;3.00;99.90
74901;DHT22;63461;51.416;6.758;2023-01-25T11:30:52;2.90;99.90
74901;DHT22;63461;51.416;6.758;2023-01-25T11:33:20;2.90;99.90
74901;DHT22;63461;51.416;6.758;2023-01-25T11:38:21;3.00;99.90
74901;DHT22;63461;51.416;6.758;2023-01-25T11:51:40;2.90;99.90
74901;DHT22;63461;51.416;6.758;2023-01-25T11:54:21;3.00;99.90
74901;DHT22;63461;51.416;6.758;2023-01-25T12:05:33;2.80;99.90
74901;DHT22;63461;51.416;6.758;2023-01-25T12:16:28;2.90;99.90
74901;DHT22;63461;51.416;6.758;2023-01-25T12:22:22;2.90;99.90
74901;DHT22;63461;51.416;6.758;2023-01-25T12:25:09;2.90;99.90
74901;DHT22;63461;51.416;6.758;2023-01-25T12:28:42;2.90;99.90
74901;DHT22;63461;51.416;6.758;2023-01-25T12:31:11;2.80;99.90
74901;DHT22;63461;51.416;6.758;2023-01-25T12:33:54;2.70;99.90
74901;DHT22;63461;51.416;6.758;2023-01-25T12:36:27;2.60;99.90
74901;DHT22;63461;51.416;6.758;2023-01-25T12:39:02;2.50;99.90
74901;DHT22;63461;51.416;6.758;2023-01-25T12:41:42;2.70;99.90
74901;DHT22;63461;51.416;6.758;2023-01-25T12:44:30;2.80;99.90
74901;DHT22;63461;51.416;6.758;2023-01-25T12:49:45;2.80;99.90
74901;DHT22;63461;51.416;6.758;2023-01-25T12:52:33;2.90;99.90
74901;DHT22;63461;51.416;6.758;2023-01-25T12:55:02;2.90;99.90
74901;DHT22;63461;51.416;6.758;2023-01-25T12:57:43;2.80;99.90
74901;DHT22;63461;51.416;6.758;2023-01-25T13:04:13;2.80;99.90
74901;DHT22;63461;51.416;6.758;2023-01-25T13:11:46;2.90;99.90
74901;DHT22;63461;51.416;6.758;2023-01-25T13:16:49;2.90;99.90
74901;DHT22;63461;51.416;6.758;2023-01-25T13:21:58;2.70;99.90
74901;DHT22;63461;51.416;6.758;2023-01-25T13:24:33;2.90;99.90
74901;DHT22;63461;51.416;6.758;2023-01-25T13:27:02;3.00;99.90
74901;DHT22;63461;51.416;6.758;2023-01-25T13:32:01;3.00;99.90
74901;DHT22;63461;51.416;6.758;2023-01-25T13:37:17;2.80;99.90
74901;DHT22;63461;51.416;6.758;2023-01-25T13:42:30;2.80;99.90
74901;DHT22;63461;51.416;6.758;2023-01-25T13:45:17;2.60;99.90
74901;DHT22;63461;51.416;6.758;2023-01-25T13:48:00;2.50;99.90
74901;DHT22;63461;51.416;6.758;2023-01-25T13:50:29;2.80;99.90
74901;DHT22;63461;51.416;6.758;2023-01-25T13:52:59;2.80;99.90
74901;DHT22;63461;51.416;6.758;2023-01-25T13:55:26;2.90;99.90
74901;DHT22;63461;51.416;6.758;2023-01-25T13:57:52;2.90;99.90
74901;DHT22;63461;51.416;6.758;2023-01-25T14:00:19;2.90;99.90
74901;DHT22;63461;51.416;6.758;2023-01-25T14:02:53;2.90;99.90
74901;DHT22;63461;51.416;6.758;2023-01-25T14:05:23;2.90;99.90
74901;DHT22;63461;51.416;6.758;2023-01-25T14:07:54;2.90;99.90
74901;DHT22;63461;51.416;6.758;2023-01-25T14:10:24;2.90;99.90
74901;DHT22;63461;51.416;6.758;2023-01-25T14:12:56;2.90;99.90
74901;DHT22;63461;51.416;6.758;2023-01-25T14:15:29;2.90;99.90
74901;DHT22;63461;51.416;6.758;2023-01-25T14:18:14;2.70;99.90
74901;DHT22;63461;51.416;6.758;2023-01-25T14:20:49;2.70;99.90
74901;DHT22;63461;51.416;6.758;2023-01-25T14:23:26;2.70;99.90
74901;DHT22;63461;51.416;6.758;2023-01-25T14:25:53;2.80;99.90
74901;DHT22;63461;51.416;6.758;2023-01-25T14:28:20;2.80;99.90
74901;DHT22;63461;51.416;6.758;2023-01-25T14:30:50;2.80;99.90
74901;DHT22;63461;51.416;6.758;2023-01-25T14:33:26;2.70;99.90
74901;DHT22;63461;51.416;6.758;2023-01-25T14:36:04;2.70;99.90
74901;DHT22;63461;51.416;6.758;2023-01-25T14:38:36;2.60;99.90
74901;DHT22;63461;51.416;6.758;2023-01-25T14:43:41;2.80;99.90
74901;DHT22;63461;51.416;6.758;2023-01-25T14:48:50;2.70;99.90
74901;DHT22;63461;51.416;6.758;2023-01-25T14:51:28;2.70;99.90
74901;DHT22;63461;51.416;6.758;2023-01-25T14:54:00;2.70;99.90
74901;DHT22;63461;51.416;6.758;2023-01-25T14:56:42;2.80;99.90
74901;DHT22;63461;51.416;6.758;2023-01-25T15:02:18;2.80;99.90
74901;DHT22;63461;51.416;6.758;2023-01-25T15:07:43;2.80;99.90
74901;DHT22;63461;51.416;6.758;2023-01-25T15:10:27;2.80;99.90
74901;DHT22;63461;51.416;6.758;2023-01-25T15:15:24;2.80;99.90
74901;DHT22;63461;51.416;6.758;2023-01-25T15:17:50;2.80;99.90
74901;DHT22;63461;51.416;6.758;2023-01-25T15:20:35;2.70;99.90
74901;DHT22;63461;51.416;6.758;2023-01-25T15:23:23;2.80;99.90
74901;DHT22;63461;51.416;6.758;2023-01-25T15:25:53;2.80;99.90
74901;DHT22;63461;51.416;6.758;2023-01-25T15:28:20;2.80;99.90
74901;DHT22;63461;51.416;6.758;2023-01-25T15:30:47;2.80;99.90
74901;DHT22;63461;51.416;6.758;2023-01-25T15:33:21;2.80;99.90
74901;DHT22;63461;51.416;6.758;2023-01-25T15:35:48;2.80;99.90
74901;DHT22;63461;51.416;6.758;2023-01-25T15:38:14;2.70;99.90
74901;DHT22;63461;51.416;6.758;2023-01-25T15:40:41;2.70;99.90
74901;DHT22;63461;51.416;6.758;2023-01-25T15:43:15;2.70;99.90
74901;DHT22;63461;51.416;6.758;2023-01-25T15:45:42;2.70;99.90
74901;DHT22;63461;51.416;6.758;2023-01-25T15:48:17;2.60;99.90
74901;DHT22;63461;51.416;6.758;2023-01-25T15:50:44;2.60;99.90
74901;DHT22;63461;51.416;6.758;2023-01-25T15:53:14;2.70;99.90
74901;DHT22;63461;51.416;6.758;2023-01-25T15:55:42;2.60;99.90
74901;DHT22;63461;51.416;6.758;2023-01-25T15:58:18;2.50;99.90
74901;DHT22;63461;51.416;6.758;2023-01-25T16:00:45;2.60;99.90
74901;DHT22;63461;51.416;6.758;2023-01-25T16:03:11;2.60;99.90
74901;DHT22;63461;51.416;6.758;2023-01-25T16:05:37;2.60;99.90
74901;DHT22;63461;51.416;6.758;2023-01-25T16:08:03;2.60;99.90
74901;DHT22;63461;51.416;6.758;2023-01-25T16:10:29;2.60;99.90
74901;DHT22;63461;51.416;6.758;2023-01-25T16:12:55;2.60;99.90
74901;DHT22;63461;51.416;6.758;2023-01-25T16:15:20;2.60;99.90
74901;DHT22;63461;51.416;6.758;2023-01-25T16:17:46;2.50;99.90
74901;DHT22;63461;51.416;6.758;2023-01-25T16:20:17;2.50;99.90
74901;DHT22;63461;51.416;6.758;2023-01-25T16:22:44;2.40;99.90
74901;DHT22;63461;51.416;6.758;2023-01-25T16:25:09;2.50;99.90
74901;DHT22;63461;51.416;6.758;2023-01-25T16:27:35;2.50;99.90
74901;DHT22;63461;51.416;6.758;2023-01-25T16:30:02;2.60;99.90
74901;DHT22;63461;51.416;6.758;2023-01-25T16:32:29;2.60;99.90
74901;DHT22;63461;51.416;6.758;2023-01-25T16:34:54;2.50;99.90
74901;DHT22;63461;51.416;6.758;2023-01-25T16:37:20;2.60;99.90
74901;DHT22;63461;51.416;6.758;2023-01-25T16:39:46;2.60;99.90
74901;DHT22;63461;51.416;6.758;2023-01-25T16:42:12;2.50;99.90
74901;DHT22;63461;51.416;6.758;2023-01-25T16:44:37;2.20;99.90
74901;DHT22;63461;51.416;6.758;2023-01-25T16:47:04;2.30;99.90
74901;DHT22;63461;51.416;6.758;2023-01-25T16:49:30;2.40;99.90
74901;DHT22;63461;51.416;6.758;2023-01-25T16:51:57;2.40;99.90
74901;DHT22;63461;51.416;6.758;2023-01-25T16:54:23;2.30;99.90
74901;DHT22;63461;51.416;6.758;2023-01-25T16:56:50;2.20;99.90
74901;DHT22;63461;51.416;6.758;2023-01-25T16:59:18;2.40;99.90
74901;DHT22;63461;51.416;6.758;2023-01-25T17:01:44;2.40;99.90
74901;DHT22;63461;51.416;6.758;2023-01-25T17:04:11;2.50;99.90
74901;DHT22;63461;51.416;6.758;2023-01-25T17:06:39;2.50;99.90
74901;DHT22;63461;51.416;6.758;2023-01-25T17:09:06;2.50;99.90
74901;DHT22;63461;51.416;6.758;2023-01-25T17:11:36;2.50;99.90
74901;DHT22;63461;51.416;6.758;2023-01-25T17:14:03;2.30;99.90
74901;DHT22;63461;51.416;6.758;2023-01-25T17:16:30;2.30;99.90
74901;DHT22;63461;51.416;6.758;2023-01-25T17:19:05;2.40;99.90
74901;DHT22;63461;51.416;6.758;2023-01-25T17:21:32;2.20;99.90
74901;DHT22;63461;51.416;6.758;2023-01-25T17:23:59;2.30;99.90
74901;DHT22;63461;51.416;6.758;2023-01-25T17:26:27;2.40;99.90
74901;DHT22;63461;51.416;6.758;2023-01-25T17:28:58;2.20;99.90
74901;DHT22;63461;51.416;6.758;2023-01-25T17:31:27;2.20;99.90
74901;DHT22;63461;51.416;6.758;2023-01-25T17:33:54;2.20;99.90
74901;DHT22;63461;51.416;6.758;2023-01-25T17:36:20;2.30;99.90
74901;DHT22;63461;51.416;6.758;2023-01-25T17:38:46;2.30;99.90
74901;DHT22;63461;51.416;6.758;2023-01-25T17:41:14;2.30;99.90
74901;DHT22;63461;51.416;6.758;2023-01-25T17:43:40;2.20;99.90
74901;DHT22;63461;51.416;6.758;2023-01-25T17:46:25;2.10;99.90
74901;DHT22;63461;51.416;6.758;2023-01-25T17:48:52;2.20;99.90